| time (UTC) | temp C | wind direction | speed KPH | gust KPH | rain 1hr cm | rain 24hr cm | rain mn cm | humidity % | barometer mb |
| 20260906221541 | 24 | 0 | 0.0 | 3.2 | 0.00 | 0.03 | 0.00 | 39 | 1024.0 |
| 20260906220038 | 24 | 0 | 0.0 | 8.0 | 0.00 | 0.03 | 0.00 | 39 | 1024.2 |
| 20260906214535 | 24 | 0 | 0.0 | 12.9 | 0.00 | 0.03 | 0.00 | 39 | 1024.3 |
| 20260906213034 | 25 | 0 | 0.0 | 19.3 | 0.00 | 0.03 | 0.00 | 37 | 1024.4 |
| 20260906211538 | 25 | 0 | 0.0 | 24.1 | 0.00 | 0.03 | 0.00 | 35 | 1024.4 |
| 20260906210036 | 26 | 0 | 0.0 | 9.7 | 0.00 | 0.03 | 0.00 | 34 | 1024.6 |
| 20260906204552 | 26 | 0 | 1.6 | 22.5 | 0.00 | 0.03 | 0.00 | 34 | 1024.7 |
| 20260906203038 | 26 | 0 | 0.0 | 14.5 | 0.00 | 0.03 | 0.00 | 32 | 1024.6 |
| 20260906201535 | 26 | 0 | 0.0 | 16.1 | 0.00 | 0.03 | 0.00 | 32 | 1024.7 |
| 20260906200036 | 26 | 0 | 0.0 | 20.9 | 0.00 | 0.03 | 0.00 | 33 | 1024.8 |
| 20260906194534 | 25 | 0 | 0.0 | 22.5 | 0.00 | 0.03 | 0.00 | 34 | 1024.8 |
| 20260906193036 | 25 | 0 | 1.6 | 16.1 | 0.00 | 0.03 | 0.00 | 35 | 1025.2 |
| 20260906191537 | 25 | 55 | 1.6 | 24.1 | 0.00 | 0.03 | 0.00 | 33 | 1025.4 |
| 20260906190041 | 25 | 0 | 1.6 | 14.5 | 0.00 | 0.03 | 0.00 | 37 | 1025.6 |
| 20260906184537 | 25 | 0 | 1.6 | 19.3 | 0.00 | 0.03 | 0.00 | 32 | 1025.8 |
| 20260906183034 | 25 | 0 | 0.0 | 24.1 | 0.00 | 0.03 | 0.00 | 35 | 1026.0 |
| 20260906181544 | 25 | 0 | 3.2 | 14.5 | 0.00 | 0.03 | 0.00 | 35 | 1026.0 |
| 20260906180048 | 25 | 0 | 1.6 | 11.3 | 0.00 | 0.03 | 0.00 | 37 | 1026.3 |
| 20260906174538 | 25 | 163 | 4.8 | 24.1 | 0.00 | 0.03 | 0.00 | 34 | 1026.4 |
| 20260906173035 | 25 | 0 | 0.0 | 19.3 | 0.00 | 0.03 | 0.00 | 34 | 1026.4 |
| 20260906171547 | 25 | 118 | 0.0 | 11.3 | 0.00 | 0.03 | 0.00 | 33 | 1026.5 |
| 20260906170043 | 25 | 0 | 0.0 | 0.0 | 0.00 | 0.03 | 0.00 | 34 | 1026.6 |
| 20260906164536 | 25 | 0 | 0.0 | 12.9 | 0.00 | 0.03 | 0.00 | 33 | 1026.5 |
| 20260906163038 | 25 | 0 | 0.0 | 3.2 | 0.00 | 0.03 | 0.00 | 35 | 1026.7 |
| 20260906161537 | 24 | 0 | 0.0 | 14.5 | 0.00 | 0.03 | 0.00 | 35 | 1026.8 |
| 20260906160037 | 24 | 0 | 0.0 | 8.0 | 0.00 | 0.03 | 0.00 | 36 | 1026.5 |
| 20260906154537 | 23 | 0 | 0.0 | 11.3 | 0.00 | 0.03 | 0.00 | 39 | 1026.5 |
| 20260906153042 | 22 | 0 | 0.0 | 9.7 | 0.00 | 0.03 | 0.00 | 42 | 1026.5 |
| 20260906151537 | 18 | 0 | 0.0 | 0.0 | 0.00 | 0.03 | 0.00 | 55 | 1026.6 |
| 20260906150039 | 17 | 0 | 0.0 | 0.0 | 0.00 | 0.03 | 0.00 | 60 | 1026.8 |
| 20260906144542 | 16 | 0 | 0.0 | 0.0 | 0.00 | 0.03 | 0.00 | 63 | 1026.8 |
| 20260906143045 | 15 | 0 | 0.0 | 0.0 | 0.00 | 0.03 | 0.00 | 64 | 1026.8 |
| 20260906141542 | 14 | 0 | 0.0 | 0.0 | 0.00 | 0.03 | 0.00 | 69 | 1026.7 |
| 20260906140039 | 12 | 0 | 0.0 | 0.0 | 0.00 | 0.03 | 0.00 | 71 | 1026.8 |
| 20260906134535 | 11 | 0 | 0.0 | 0.0 | 0.00 | 0.03 | 0.00 | 75 | 1026.9 |
| 20260906133103 | 10 | 0 | 0.0 | 0.0 | 0.00 | 0.03 | 0.00 | 75 | 1026.8 |
| 20260906131538 | 10 | 0 | 0.0 | 0.0 | 0.00 | 0.03 | 0.00 | 74 | 1026.8 |
| 20260906130036 | 10 | 0 | 0.0 | 0.0 | 0.00 | 0.03 | 0.00 | 74 | 1026.6 |
| 20260906124535 | 10 | 0 | 0.0 | 0.0 | 0.00 | 0.03 | 0.00 | 74 | 1026.5 |
| 20260906123037 | 10 | 0 | 0.0 | 0.0 | 0.00 | 0.03 | 0.00 | 73 | 1026.2 |
| 20260906121542 | 10 | 0 | 0.0 | 0.0 | 0.00 | 0.03 | 0.00 | 73 | 1026.4 |
| 20260906120038 | 10 | 0 | 0.0 | 0.0 | 0.00 | 0.03 | 0.00 | 74 | 1026.3 |
| 20260906114544 | 10 | 0 | 0.0 | 0.0 | 0.00 | 0.03 | 0.00 | 73 | 1026.3 |
| 20260906113035 | 10 | 0 | 0.0 | 0.0 | 0.00 | 0.03 | 0.00 | 73 | 1026.5 |
| 20260906111543 | 10 | 0 | 0.0 | 0.0 | 0.00 | 0.03 | 0.00 | 72 | 1026.5 |
| 20260906110037 | 10 | 0 | 0.0 | 0.0 | 0.00 | 0.03 | 0.00 | 72 | 1026.5 |
| 20260906104535 | 10 | 0 | 0.0 | 0.0 | 0.00 | 0.03 | 0.00 | 72 | 1026.5 |
| 20260906103038 | 10 | 0 | 0.0 | 0.0 | 0.00 | 0.03 | 0.00 | 71 | 1026.6 |
| 20260906101536 | 10 | 0 | 0.0 | 0.0 | 0.00 | 0.03 | 0.00 | 70 | 1026.5 |
| 20260906100039 | 11 | 0 | 0.0 | 0.0 | 0.00 | 0.03 | 0.00 | 70 | 1026.5 |
| 20260906094536 | 11 | 0 | 0.0 | 0.0 | 0.00 | 0.03 | 0.00 | 69 | 1026.6 |
| 20260906093041 | 11 | 0 | 0.0 | 0.0 | 0.00 | 0.03 | 0.00 | 69 | 1026.6 |
| 20260906091536 | 11 | 0 | 0.0 | 0.0 | 0.00 | 0.03 | 0.00 | 68 | 1026.5 |
| 20260906090035 | 12 | 0 | 0.0 | 0.0 | 0.00 | 0.03 | 0.00 | 67 | 1026.4 |
| 20260906084536 | 12 | 0 | 0.0 | 0.0 | 0.00 | 0.03 | 0.00 | 67 | 1026.4 |
| 20260906083037 | 12 | 0 | 0.0 | 0.0 | 0.00 | 0.03 | 0.00 | 66 | 1026.5 |
| 20260906081535 | 13 | 0 | 0.0 | 0.0 | 0.00 | 0.03 | 0.00 | 65 | 1026.7 |
| 20260906080037 | 13 | 0 | 0.0 | 0.0 | 0.00 | 0.03 | 0.00 | 64 | 1026.8 |
| 20260906074536 | 13 | 0 | 0.0 | 0.0 | 0.00 | 0.03 | 0.00 | 64 | 1026.8 |
| 20260906073038 | 14 | 0 | 0.0 | 0.0 | 0.00 | 0.03 | 0.00 | 64 | 1026.9 |
| 20260906071537 | 15 | 0 | 0.0 | 0.0 | 0.00 | 0.03 | 0.00 | 63 | 1026.6 |
| 20260906070036 | 15 | 0 | 0.0 | 0.0 | 0.00 | 0.03 | 0.00 | 63 | 1026.5 |
| 20260906064534 | 15 | 0 | 0.0 | 0.0 | 0.00 | 0.03 | 0.00 | 63 | 1026.6 |
| 20260906063036 | 15 | 0 | 0.0 | 0.0 | 0.00 | 0.03 | 0.00 | 63 | 1027.0 |
| 20260906061537 | 15 | 0 | 0.0 | 0.0 | 0.00 | 0.03 | 0.00 | 62 | 1027.1 |
| 20260906060035 | 15 | 0 | 0.0 | 0.0 | 0.00 | 0.03 | 0.00 | 63 | 1027.0 |
| 20260906054552 | 15 | 0 | 0.0 | 0.0 | 0.00 | 0.03 | 0.03 | 62 | 1027.0 |
| 20260906053037 | 15 | 0 | 0.0 | 0.0 | 0.00 | 0.03 | 0.03 | 62 | 1027.1 |
| 20260906051551 | 15 | 0 | 0.0 | 0.0 | 0.00 | 0.03 | 0.03 | 61 | 1026.9 |
| 20260906050044 | 16 | 0 | 0.0 | 0.0 | 0.00 | 0.03 | 0.03 | 61 | 1026.9 |
| 20260906044538 | 16 | 0 | 0.0 | 0.0 | 0.00 | 0.03 | 0.03 | 58 | 1026.9 |
| 20260906043036 | 16 | 0 | 0.0 | 0.0 | 0.00 | 0.03 | 0.03 | 56 | 1026.9 |
| 20260906041536 | 16 | 0 | 0.0 | 0.0 | 0.00 | 0.03 | 0.03 | 56 | 1026.5 |
| 20260906040108 | 16 | 0 | 0.0 | 0.0 | 0.00 | 0.03 | 0.03 | 55 | 1026.4 |
| 20260906034534 | 16 | 0 | 0.0 | 0.0 | 0.00 | 0.03 | 0.03 | 54 | 1026.3 |
| 20260906033051 | 16 | 0 | 0.0 | 3.2 | 0.00 | 0.03 | 0.03 | 55 | 1026.3 |
| 20260906031535 | 16 | 0 | 0.0 | 0.0 | 0.00 | 0.03 | 0.03 | 56 | 1026.4 |
| 20260906030035 | 17 | 0 | 0.0 | 0.0 | 0.00 | 0.03 | 0.03 | 57 | 1026.3 |
| 20260906024538 | 17 | 0 | 0.0 | 0.0 | 0.00 | 0.03 | 0.03 | 56 | 1026.2 |
| 20260906023036 | 17 | 0 | 0.0 | 0.0 | 0.00 | 0.03 | 0.03 | 56 | 1026.0 |
| 20260906021536 | 17 | 0 | 0.0 | 0.0 | 0.00 | 0.03 | 0.03 | 55 | 1025.9 |
| 20260906020036 | 18 | 0 | 0.0 | 0.0 | 0.00 | 0.03 | 0.03 | 54 | 1025.9 |
| 20260906014535 | 18 | 0 | 0.0 | 0.0 | 0.00 | 0.03 | 0.03 | 55 | 1026.0 |
| 20260906013035 | 18 | 0 | 0.0 | 0.0 | 0.00 | 0.03 | 0.03 | 52 | 1026.1 |
| 20260906011535 | 18 | 0 | 0.0 | 0.0 | 0.00 | 0.03 | 0.03 | 55 | 1026.1 |
| 20260906010039 | 19 | 0 | 0.0 | 0.0 | 0.00 | 0.03 | 0.03 | 55 | 1026.1 |
| 20260906004537 | 20 | 0 | 0.0 | 0.0 | 0.00 | 0.03 | 0.03 | 57 | 1026.4 |
| 20260906003037 | 20 | 0 | 0.0 | 0.0 | 0.00 | 0.03 | 0.03 | 54 | 1026.9 |
| 20260906001534 | 21 | 0 | 0.0 | 0.0 | 0.00 | 0.03 | 0.03 | 56 | 1026.7 |
| 20260906000037 | 22 | 0 | 0.0 | 1.6 | 0.00 | 0.03 | 0.03 | 42 | 1026.8 |
| 20260905234537 | 22 | 0 | 0.0 | 0.0 | 0.00 | 0.03 | 0.03 | 43 | 1026.1 |
| 20260905233034 | 22 | 0 | 0.0 | 0.0 | 0.00 | 0.03 | 0.03 | 44 | 1025.9 |
| 20260905231537 | 21 | 0 | 0.0 | 0.0 | 0.03 | 0.03 | 0.03 | 49 | 1026.0 |
| 20260905230037 | 21 | 0 | 0.0 | 4.8 | 0.03 | 0.03 | 0.03 | 48 | 1025.8 |
| 20260905224607 | 20 | 0 | 0.0 | 11.3 | 0.03 | 0.03 | 0.03 | 51 | 1025.7 |
| 20260905223035 | 22 | 0 | 0.0 | 12.9 | 0.03 | 0.03 | 0.03 | 40 | 1026.3 |